RYR400P EPKK-LIRZ
Flight info
| Callsign | RYR400P |
|---|---|
| Flight time | 1h 32m |
| Altitude | 24000 |
| Route | BABKO DCT VADEX L856 KOPAT/N0439F380 DCT MAREG DCT ARMIX DCT BAXON/N0443F390 DCT GAVRA/N0338F190 Z806 VERUN Q25 LAKOX |
| Aircraft | B38M/M-SADE3FGILRWY/SB1 |
Departure
| Time | 2026-04-26 11:14 |
|---|---|
| Airport | Kraków John Paul II International Airport (EPKK) |
Arrival
| Time | 2026-04-26 12:47 |
|---|---|
| Airport | Perugia San Francesco d'Assisi – Umbria International Airport (LIRZ) |
| Time | Latitude | Longitude | Altitude | Speed | Heading |
|---|---|---|---|---|---|
| 2026-04-26 10:48 | 50.07497 | 19.80210 | 802 ft | 0 kts | 168° |
| 2026-04-26 11:06 | 50.07492 | 19.80211 | 802 ft | 3 kts | 168° |
| 2026-04-26 11:06 | 50.07447 | 19.80233 | 802 ft | 8 kts | 139° |
| 2026-04-26 11:07 | 50.07442 | 19.80326 | 802 ft | 10 kts | 73° |
| 2026-04-26 11:07 | 50.07500 | 19.80391 | 802 ft | 12 kts | 16° |
| 2026-04-26 11:07 | 50.07586 | 19.80423 | 802 ft | 13 kts | 358° |
| 2026-04-26 11:07 | 50.07676 | 19.80393 | 802 ft | 13 kts | 347° |
| 2026-04-26 11:08 | 50.07774 | 19.80360 | 802 ft | 14 kts | 348° |
| 2026-04-26 11:08 | 50.07840 | 19.80338 | 803 ft | 0 kts | 348° |
| 2026-04-26 11:12 | 50.07844 | 19.80336 | 803 ft | 2 kts | 348° |
| 2026-04-26 11:12 | 50.07874 | 19.80326 | 802 ft | 7 kts | 348° |
| 2026-04-26 11:12 | 50.07937 | 19.80306 | 802 ft | 12 kts | 348° |
| 2026-04-26 11:13 | 50.08006 | 19.80250 | 802 ft | 7 kts | 298° |
| 2026-04-26 11:13 | 50.08011 | 19.80226 | 802 ft | 5 kts | 282° |
| 2026-04-26 11:13 | 50.08004 | 19.80140 | 803 ft | 10 kts | 258° |
| 2026-04-26 11:13 | 50.07980 | 19.79964 | 803 ft | 41 kts | 258° |
| 2026-04-26 11:14 | 50.07860 | 19.79102 | 803 ft | 120 kts | 258° |
| 2026-04-26 11:14 | 50.07644 | 19.77510 | 905 ft | 168 kts | 261° |
| 2026-04-26 11:14 | 50.07409 | 19.75688 | 1463 ft | 177 kts | 261° |
| 2026-04-26 11:14 | 50.07236 | 19.74363 | 1896 ft | 193 kts | 263° |
| 2026-04-26 11:15 | 50.06849 | 19.71472 | 3251 ft | 212 kts | 263° |
| 2026-04-26 11:15 | 50.06513 | 19.69114 | 4122 ft | 229 kts | 262° |
| 2026-04-26 11:15 | 50.05943 | 19.66715 | 5123 ft | 250 kts | 241° |
| 2026-04-26 11:15 | 50.04576 | 19.64917 | 5988 ft | 276 kts | 206° |
| 2026-04-26 11:16 | 50.02630 | 19.64589 | 7210 ft | 287 kts | 173° |
| 2026-04-26 11:16 | 50.00684 | 19.65354 | 8127 ft | 298 kts | 168° |
| 2026-04-26 11:16 | 49.98610 | 19.66086 | 8913 ft | 312 kts | 174° |
| 2026-04-26 11:16 | 49.96472 | 19.65999 | 9977 ft | 307 kts | 199° |
| 2026-04-26 11:17 | 49.94464 | 19.64859 | 10726 ft | 314 kts | 208° |
| 2026-04-26 11:17 | 49.92359 | 19.63609 | 11301 ft | 334 kts | 207° |
| 2026-04-26 11:17 | 49.90120 | 19.62353 | 11902 ft | 350 kts | 206° |
| 2026-04-26 11:17 | 49.87780 | 19.61074 | 12565 ft | 362 kts | 206° |
| 2026-04-26 11:18 | 49.85377 | 19.59781 | 13398 ft | 369 kts | 206° |
| 2026-04-26 11:18 | 49.82928 | 19.58472 | 14155 ft | 377 kts | 206° |
| 2026-04-26 11:18 | 49.80433 | 19.57145 | 14944 ft | 379 kts | 207° |
| 2026-04-26 11:18 | 49.77937 | 19.55818 | 15790 ft | 381 kts | 207° |
| 2026-04-26 11:19 | 49.75418 | 19.54481 | 16557 ft | 384 kts | 207° |
| 2026-04-26 11:19 | 49.72884 | 19.53137 | 17353 ft | 386 kts | 208° |
| 2026-04-26 11:19 | 49.70332 | 19.51785 | 18164 ft | 389 kts | 208° |
| 2026-04-26 11:19 | 49.67764 | 19.50424 | 18837 ft | 392 kts | 208° |
| 2026-04-26 11:20 | 49.65177 | 19.49059 | 19456 ft | 395 kts | 208° |
| 2026-04-26 11:20 | 49.63458 | 19.48147 | 19848 ft | 396 kts | 209° |
| 2026-04-26 11:20 | 49.60419 | 19.45314 | 20575 ft | 374 kts | 234° |
| 2026-04-26 11:20 | 49.58572 | 19.42480 | 21093 ft | 376 kts | 236° |
| 2026-04-26 11:21 | 49.56741 | 19.39591 | 21681 ft | 378 kts | 237° |
| 2026-04-26 11:21 | 49.54909 | 19.36660 | 22249 ft | 381 kts | 237° |
| 2026-04-26 11:21 | 49.53075 | 19.33698 | 22831 ft | 384 kts | 237° |
| 2026-04-26 11:21 | 49.51228 | 19.30701 | 23359 ft | 388 kts | 237° |
| 2026-04-26 11:22 | 49.49368 | 19.27678 | 23878 ft | 391 kts | 237° |
| 2026-04-26 11:22 | 49.47494 | 19.24633 | 24334 ft | 393 kts | 237° |
| 2026-04-26 11:22 | 49.45611 | 19.21575 | 24819 ft | 395 kts | 236° |
| 2026-04-26 11:22 | 49.43715 | 19.18502 | 25296 ft | 397 kts | 236° |
| 2026-04-26 11:23 | 49.41809 | 19.15415 | 25755 ft | 400 kts | 236° |
| 2026-04-26 11:23 | 49.39891 | 19.12311 | 26210 ft | 402 kts | 236° |
| 2026-04-26 11:23 | 49.37963 | 19.09194 | 26650 ft | 404 kts | 236° |
| 2026-04-26 11:23 | 49.36020 | 19.06059 | 27112 ft | 406 kts | 236° |
| 2026-04-26 11:24 | 49.34066 | 19.02911 | 27557 ft | 408 kts | 235° |
| 2026-04-26 11:24 | 49.32102 | 18.99748 | 28008 ft | 410 kts | 235° |
| 2026-04-26 11:24 | 49.30128 | 18.96573 | 28436 ft | 413 kts | 235° |
| 2026-04-26 11:24 | 49.28144 | 18.93388 | 28840 ft | 415 kts | 235° |
| 2026-04-26 11:25 | 49.26141 | 18.90173 | 29247 ft | 418 kts | 234° |
| 2026-04-26 11:25 | 49.24133 | 18.86958 | 29659 ft | 420 kts | 234° |
| 2026-04-26 11:25 | 49.22107 | 18.83717 | 30061 ft | 422 kts | 234° |
| 2026-04-26 11:25 | 49.20075 | 18.80469 | 30422 ft | 424 kts | 234° |
| 2026-04-26 11:26 | 49.18028 | 18.77203 | 30737 ft | 426 kts | 234° |
| 2026-04-26 11:26 | 49.15972 | 18.73927 | 31045 ft | 428 kts | 233° |
| 2026-04-26 11:26 | 49.13905 | 18.70636 | 31341 ft | 430 kts | 233° |
| 2026-04-26 11:26 | 49.11824 | 18.67326 | 31649 ft | 432 kts | 233° |
| 2026-04-26 11:27 | 49.09879 | 18.63875 | 31987 ft | 426 kts | 239° |
| 2026-04-26 11:27 | 49.08056 | 18.60304 | 32407 ft | 426 kts | 238° |
| 2026-04-26 11:27 | 49.06214 | 18.56771 | 32818 ft | 426 kts | 238° |
| 2026-04-26 11:27 | 49.04986 | 18.54437 | 33105 ft | 425 kts | 237° |
| 2026-04-26 11:28 | 49.02532 | 18.49799 | 33615 ft | 424 kts | 237° |
| 2026-04-26 11:28 | 49.00681 | 18.46311 | 34010 ft | 423 kts | 237° |
| 2026-04-26 11:28 | 48.98829 | 18.42827 | 34208 ft | 424 kts | 237° |
| 2026-04-26 11:28 | 48.96978 | 18.39349 | 34208 ft | 422 kts | 237° |
| 2026-04-26 11:29 | 48.93892 | 18.33562 | 34204 ft | 421 kts | 237° |
| 2026-04-26 11:29 | 48.90200 | 18.26654 | 34200 ft | 420 kts | 237° |
| 2026-04-26 11:30 | 48.86510 | 18.19767 | 34197 ft | 420 kts | 236° |
| 2026-04-26 11:30 | 48.82820 | 18.12899 | 34199 ft | 420 kts | 236° |
| 2026-04-26 11:31 | 48.79126 | 18.06042 | 34214 ft | 420 kts | 236° |
| 2026-04-26 11:31 | 48.75428 | 17.99195 | 34210 ft | 420 kts | 236° |
| 2026-04-26 11:32 | 48.71719 | 17.92345 | 34213 ft | 420 kts | 236° |
| 2026-04-26 11:32 | 48.68037 | 17.85560 | 34203 ft | 420 kts | 236° |
| 2026-04-26 11:33 | 48.64295 | 17.78685 | 34208 ft | 420 kts | 236° |
| 2026-04-26 11:33 | 48.60599 | 17.71911 | 34209 ft | 420 kts | 236° |
| 2026-04-26 11:34 | 48.56879 | 17.65109 | 34209 ft | 420 kts | 235° |
| 2026-04-26 11:34 | 48.53295 | 17.58573 | 34206 ft | 420 kts | 235° |
| 2026-04-26 11:35 | 48.49564 | 17.51786 | 34206 ft | 420 kts | 235° |
| 2026-04-26 11:35 | 48.45831 | 17.45014 | 34204 ft | 420 kts | 235° |
| 2026-04-26 11:36 | 48.42098 | 17.38255 | 34207 ft | 419 kts | 235° |
| 2026-04-26 11:36 | 48.38370 | 17.31526 | 34207 ft | 418 kts | 234° |
| 2026-04-26 11:37 | 48.34642 | 17.24813 | 34208 ft | 418 kts | 234° |
| 2026-04-26 11:37 | 48.30911 | 17.18110 | 34207 ft | 418 kts | 234° |
| 2026-04-26 11:38 | 48.27181 | 17.11425 | 34207 ft | 417 kts | 234° |
| 2026-04-26 11:38 | 48.23446 | 17.04746 | 34210 ft | 418 kts | 234° |
| 2026-04-26 11:39 | 48.19693 | 16.98079 | 34209 ft | 420 kts | 231° |
| 2026-04-26 11:39 | 48.17446 | 16.95247 | 34217 ft | 426 kts | 218° |
| 2026-04-26 11:39 | 48.15017 | 16.92690 | 34208 ft | 427 kts | 220° |
| 2026-04-26 11:40 | 48.10172 | 16.87507 | 34228 ft | 429 kts | 219° |
| 2026-04-26 11:40 | 48.05297 | 16.82352 | 34230 ft | 429 kts | 219° |
| 2026-04-26 11:42 | 47.85684 | 16.61758 | 34214 ft | 432 kts | 219° |
| 2026-04-26 11:43 | 47.80764 | 16.56622 | 34210 ft | 432 kts | 218° |
| 2026-04-26 11:43 | 47.75879 | 16.51534 | 34211 ft | 431 kts | 218° |
| 2026-04-26 11:44 | 47.70963 | 16.46426 | 34201 ft | 431 kts | 218° |
| 2026-04-26 11:44 | 47.66049 | 16.41333 | 34198 ft | 430 kts | 218° |
| 2026-04-26 11:45 | 47.61146 | 16.36263 | 34190 ft | 429 kts | 218° |
| 2026-04-26 11:45 | 47.56260 | 16.31221 | 34190 ft | 427 kts | 218° |
| 2026-04-26 11:46 | 47.51395 | 16.26213 | 34172 ft | 425 kts | 218° |
| 2026-04-26 11:46 | 47.46549 | 16.21237 | 34168 ft | 423 kts | 217° |
| 2026-04-26 11:47 | 47.41726 | 16.16296 | 34165 ft | 422 kts | 217° |
| 2026-04-26 11:47 | 47.36897 | 16.11359 | 34158 ft | 421 kts | 217° |
| 2026-04-26 11:48 | 47.32086 | 16.06452 | 34155 ft | 421 kts | 217° |
| 2026-04-26 11:48 | 47.27268 | 16.01549 | 34150 ft | 420 kts | 217° |
| 2026-04-26 11:49 | 47.22462 | 15.96669 | 34143 ft | 419 kts | 217° |
| 2026-04-26 11:49 | 47.17655 | 15.91798 | 34135 ft | 420 kts | 217° |
| 2026-04-26 11:50 | 47.12845 | 15.86936 | 34128 ft | 419 kts | 217° |
| 2026-04-26 11:50 | 47.08036 | 15.82085 | 34122 ft | 420 kts | 217° |
| 2026-04-26 11:51 | 47.03222 | 15.77241 | 34126 ft | 420 kts | 217° |
| 2026-04-26 11:51 | 46.98407 | 15.72406 | 34126 ft | 420 kts | 216° |
| 2026-04-26 11:52 | 46.94392 | 15.68383 | 34129 ft | 421 kts | 216° |
| 2026-04-26 11:52 | 46.88729 | 15.62721 | 34126 ft | 422 kts | 216° |
| 2026-04-26 11:53 | 46.83875 | 15.57880 | 34123 ft | 423 kts | 216° |
| 2026-04-26 11:54 | 46.76562 | 15.50605 | 34125 ft | 425 kts | 216° |
| 2026-04-26 11:54 | 46.71708 | 15.45791 | 34125 ft | 425 kts | 216° |
| 2026-04-26 11:55 | 46.66817 | 15.40950 | 34123 ft | 426 kts | 216° |
| 2026-04-26 11:55 | 46.61919 | 15.36114 | 34122 ft | 426 kts | 216° |
| 2026-04-26 11:56 | 46.57003 | 15.31269 | 34116 ft | 426 kts | 216° |
| 2026-04-26 11:56 | 46.52093 | 15.26443 | 34115 ft | 426 kts | 216° |
| 2026-04-26 11:57 | 46.47182 | 15.21626 | 34115 ft | 426 kts | 216° |
| 2026-04-26 11:57 | 46.42266 | 15.16814 | 34113 ft | 426 kts | 216° |
| 2026-04-26 11:58 | 46.37358 | 15.12021 | 34107 ft | 426 kts | 216° |
| 2026-04-26 11:58 | 46.32443 | 15.07232 | 34109 ft | 426 kts | 216° |
| 2026-04-26 11:59 | 46.27519 | 15.02444 | 34109 ft | 426 kts | 216° |
| 2026-04-26 11:59 | 46.22592 | 14.97664 | 34107 ft | 427 kts | 216° |
| 2026-04-26 12:00 | 46.17663 | 14.92893 | 34108 ft | 427 kts | 216° |
| 2026-04-26 12:00 | 46.12730 | 14.88128 | 34102 ft | 427 kts | 216° |
| 2026-04-26 12:01 | 46.07780 | 14.83358 | 34106 ft | 427 kts | 216° |
| 2026-04-26 12:01 | 46.02835 | 14.78603 | 34096 ft | 427 kts | 216° |
| 2026-04-26 12:02 | 45.97888 | 14.73855 | 34103 ft | 428 kts | 216° |
| 2026-04-26 12:02 | 45.92935 | 14.69113 | 34110 ft | 428 kts | 216° |
| 2026-04-26 12:03 | 45.87972 | 14.64373 | 34097 ft | 428 kts | 216° |
| 2026-04-26 12:03 | 45.83058 | 14.59688 | 34097 ft | 428 kts | 216° |
| 2026-04-26 12:04 | 45.78049 | 14.54923 | 34091 ft | 428 kts | 216° |
| 2026-04-26 12:04 | 45.73115 | 14.50239 | 34092 ft | 428 kts | 216° |
| 2026-04-26 12:05 | 45.68149 | 14.45533 | 34089 ft | 428 kts | 216° |
| 2026-04-26 12:05 | 45.63180 | 14.40834 | 34095 ft | 428 kts | 216° |
| 2026-04-26 12:06 | 45.58207 | 14.36142 | 34080 ft | 428 kts | 216° |
| 2026-04-26 12:06 | 45.53328 | 14.31548 | 34083 ft | 428 kts | 215° |
| 2026-04-26 12:07 | 45.48333 | 14.26895 | 34082 ft | 431 kts | 212° |
| 2026-04-26 12:07 | 45.43041 | 14.22939 | 34082 ft | 429 kts | 210° |
| 2026-04-26 12:08 | 45.37785 | 14.18921 | 34089 ft | 429 kts | 211° |
| 2026-04-26 12:08 | 45.32535 | 14.14886 | 34086 ft | 429 kts | 211° |
| 2026-04-26 12:09 | 45.27279 | 14.10852 | 34083 ft | 429 kts | 210° |
| 2026-04-26 12:09 | 45.22030 | 14.06831 | 34086 ft | 429 kts | 211° |
| 2026-04-26 12:10 | 45.16777 | 14.02816 | 34091 ft | 429 kts | 211° |
| 2026-04-26 12:10 | 45.11537 | 13.98820 | 34089 ft | 428 kts | 210° |
| 2026-04-26 12:11 | 45.06279 | 13.94818 | 34096 ft | 428 kts | 210° |
| 2026-04-26 12:11 | 45.01035 | 13.90836 | 34099 ft | 428 kts | 210° |
| 2026-04-26 12:12 | 44.95787 | 13.86858 | 34102 ft | 428 kts | 210° |
| 2026-04-26 12:12 | 44.90542 | 13.82891 | 34106 ft | 428 kts | 210° |
| 2026-04-26 12:13 | 44.85293 | 13.78929 | 34100 ft | 427 kts | 210° |
| 2026-04-26 12:13 | 44.80055 | 13.74984 | 34100 ft | 427 kts | 210° |
| 2026-04-26 12:14 | 44.74815 | 13.71046 | 34098 ft | 427 kts | 210° |
| 2026-04-26 12:14 | 44.69576 | 13.67117 | 34097 ft | 427 kts | 210° |
| 2026-04-26 12:15 | 44.65215 | 13.63852 | 34100 ft | 427 kts | 210° |
| 2026-04-26 12:15 | 44.59970 | 13.59933 | 34101 ft | 427 kts | 210° |
| 2026-04-26 12:16 | 44.54724 | 13.56022 | 34102 ft | 427 kts | 210° |
| 2026-04-26 12:16 | 44.49479 | 13.52117 | 34104 ft | 427 kts | 210° |
| 2026-04-26 12:17 | 44.44247 | 13.48198 | 34105 ft | 426 kts | 213° |
| 2026-04-26 12:17 | 44.41972 | 13.45613 | 34101 ft | 419 kts | 231° |
| 2026-04-26 12:17 | 44.40325 | 13.42276 | 34117 ft | 417 kts | 242° |
| 2026-04-26 12:18 | 44.37468 | 13.35196 | 34110 ft | 418 kts | 243° |
| 2026-04-26 12:18 | 44.34713 | 13.28095 | 34111 ft | 418 kts | 243° |
| 2026-04-26 12:19 | 44.31967 | 13.20932 | 34114 ft | 418 kts | 243° |
| 2026-04-26 12:19 | 44.29221 | 13.13774 | 34113 ft | 418 kts | 243° |
| 2026-04-26 12:20 | 44.26470 | 13.06618 | 34116 ft | 418 kts | 243° |
| 2026-04-26 12:20 | 44.23716 | 12.99474 | 34118 ft | 418 kts | 243° |
| 2026-04-26 12:21 | 44.20958 | 12.92334 | 34112 ft | 418 kts | 243° |
| 2026-04-26 12:21 | 44.18195 | 12.85205 | 34110 ft | 418 kts | 243° |
| 2026-04-26 12:22 | 44.15432 | 12.78090 | 34105 ft | 418 kts | 243° |
| 2026-04-26 12:22 | 44.12661 | 12.70973 | 34101 ft | 418 kts | 243° |
| 2026-04-26 12:23 | 44.09890 | 12.63875 | 34101 ft | 417 kts | 243° |
| 2026-04-26 12:23 | 44.07174 | 12.56935 | 33977 ft | 396 kts | 243° |
| 2026-04-26 12:23 | 44.05875 | 12.53620 | 33767 ft | 386 kts | 243° |
| 2026-04-26 12:24 | 44.04596 | 12.50363 | 33345 ft | 383 kts | 243° |
| 2026-04-26 12:24 | 44.03331 | 12.47143 | 32822 ft | 385 kts | 243° |
| 2026-04-26 12:24 | 44.02032 | 12.43841 | 32354 ft | 384 kts | 243° |
| 2026-04-26 12:25 | 43.99496 | 12.37407 | 31499 ft | 380 kts | 243° |
| 2026-04-26 12:25 | 43.98228 | 12.34194 | 31058 ft | 378 kts | 243° |
| 2026-04-26 12:25 | 43.96970 | 12.31010 | 30616 ft | 376 kts | 244° |
| 2026-04-26 12:25 | 43.95714 | 12.27835 | 30182 ft | 373 kts | 243° |
| 2026-04-26 12:26 | 43.94468 | 12.24690 | 29686 ft | 371 kts | 243° |
| 2026-04-26 12:26 | 43.93230 | 12.21568 | 29237 ft | 367 kts | 244° |
| 2026-04-26 12:26 | 43.92005 | 12.18481 | 28813 ft | 363 kts | 244° |
| 2026-04-26 12:26 | 43.90790 | 12.15425 | 28405 ft | 360 kts | 244° |
| 2026-04-26 12:27 | 43.89588 | 12.12403 | 27990 ft | 357 kts | 244° |
| 2026-04-26 12:27 | 43.88392 | 12.09400 | 27582 ft | 355 kts | 244° |
| 2026-04-26 12:27 | 43.87192 | 12.06389 | 27161 ft | 358 kts | 243° |
| 2026-04-26 12:27 | 43.85995 | 12.03391 | 26765 ft | 357 kts | 244° |
| 2026-04-26 12:28 | 43.84787 | 12.00366 | 26341 ft | 356 kts | 244° |
| 2026-04-26 12:28 | 43.83591 | 11.97374 | 25934 ft | 355 kts | 244° |
| 2026-04-26 12:28 | 43.82396 | 11.94387 | 25524 ft | 355 kts | 244° |
| 2026-04-26 12:28 | 43.81198 | 11.91395 | 25108 ft | 356 kts | 244° |
| 2026-04-26 12:29 | 43.79997 | 11.88440 | 24699 ft | 357 kts | 240° |
| 2026-04-26 12:29 | 43.78360 | 11.85842 | 24218 ft | 363 kts | 220° |
| 2026-04-26 12:29 | 43.73665 | 11.83573 | 23424 ft | 365 kts | 181° |
| 2026-04-26 12:30 | 43.71143 | 11.83875 | 22976 ft | 363 kts | 174° |
| 2026-04-26 12:30 | 43.68641 | 11.84304 | 22542 ft | 361 kts | 173° |
| 2026-04-26 12:30 | 43.66155 | 11.84756 | 22118 ft | 359 kts | 173° |
| 2026-04-26 12:31 | 43.61254 | 11.85690 | 21325 ft | 354 kts | 172° |
| 2026-04-26 12:31 | 43.58816 | 11.86165 | 20908 ft | 352 kts | 172° |
| 2026-04-26 12:31 | 43.56397 | 11.86638 | 20510 ft | 350 kts | 172° |
| 2026-04-26 12:31 | 43.53991 | 11.87107 | 20101 ft | 349 kts | 172° |
| 2026-04-26 12:32 | 43.51593 | 11.87576 | 19706 ft | 346 kts | 172° |
| 2026-04-26 12:32 | 43.49229 | 11.88038 | 19310 ft | 341 kts | 172° |
| 2026-04-26 12:32 | 43.44574 | 11.88945 | 18521 ft | 336 kts | 172° |
| 2026-04-26 12:33 | 43.42265 | 11.89395 | 18085 ft | 334 kts | 172° |
| 2026-04-26 12:33 | 43.39977 | 11.89841 | 17665 ft | 331 kts | 172° |
| 2026-04-26 12:33 | 43.37705 | 11.90283 | 17220 ft | 328 kts | 172° |
| 2026-04-26 12:33 | 43.35449 | 11.90721 | 16785 ft | 327 kts | 171° |
| 2026-04-26 12:34 | 43.33206 | 11.91156 | 16371 ft | 325 kts | 171° |
| 2026-04-26 12:34 | 43.31001 | 11.91585 | 15986 ft | 324 kts | 171° |
| 2026-04-26 12:34 | 43.28822 | 11.92308 | 15561 ft | 321 kts | 154° |
| 2026-04-26 12:34 | 43.27052 | 11.94030 | 15214 ft | 306 kts | 133° |
| 2026-04-26 12:35 | 43.25603 | 11.96081 | 14882 ft | 295 kts | 132° |
| 2026-04-26 12:35 | 43.24186 | 11.98128 | 14541 ft | 296 kts | 132° |
| 2026-04-26 12:35 | 43.22780 | 12.00182 | 14168 ft | 292 kts | 131° |
| 2026-04-26 12:35 | 43.21413 | 12.02195 | 13817 ft | 287 kts | 131° |
| 2026-04-26 12:36 | 43.20065 | 12.04193 | 13417 ft | 285 kts | 132° |
| 2026-04-26 12:36 | 43.18722 | 12.06184 | 13047 ft | 285 kts | 131° |
| 2026-04-26 12:36 | 43.17440 | 12.08089 | 12712 ft | 286 kts | 131° |
| 2026-04-26 12:36 | 43.16065 | 12.10054 | 12325 ft | 285 kts | 138° |
| 2026-04-26 12:37 | 43.14405 | 12.11516 | 11807 ft | 284 kts | 151° |
| 2026-04-26 12:37 | 43.12692 | 12.12797 | 11395 ft | 276 kts | 150° |
| 2026-04-26 12:37 | 43.11047 | 12.14062 | 11070 ft | 267 kts | 149° |
| 2026-04-26 12:37 | 43.09447 | 12.15307 | 10730 ft | 264 kts | 149° |
| 2026-04-26 12:38 | 43.07845 | 12.16564 | 10427 ft | 266 kts | 149° |
| 2026-04-26 12:38 | 43.06256 | 12.17816 | 10106 ft | 260 kts | 149° |
| 2026-04-26 12:38 | 43.04696 | 12.19049 | 9813 ft | 261 kts | 149° |
| 2026-04-26 12:38 | 43.03125 | 12.20291 | 9458 ft | 260 kts | 149° |
| 2026-04-26 12:39 | 43.01561 | 12.21528 | 9114 ft | 259 kts | 149° |
| 2026-04-26 12:39 | 43.00003 | 12.22760 | 8778 ft | 258 kts | 149° |
| 2026-04-26 12:39 | 42.98476 | 12.23968 | 8444 ft | 256 kts | 149° |
| 2026-04-26 12:39 | 42.96941 | 12.25185 | 8132 ft | 255 kts | 150° |
| 2026-04-26 12:40 | 42.95415 | 12.26387 | 7816 ft | 251 kts | 150° |
| 2026-04-26 12:40 | 42.93929 | 12.27586 | 7504 ft | 245 kts | 145° |
| 2026-04-26 12:40 | 42.92744 | 12.29198 | 7258 ft | 236 kts | 129° |
| 2026-04-26 12:40 | 42.91695 | 12.30906 | 7115 ft | 237 kts | 130° |
| 2026-04-26 12:41 | 42.90631 | 12.32642 | 6971 ft | 239 kts | 129° |
| 2026-04-26 12:41 | 42.89577 | 12.34376 | 6845 ft | 234 kts | 130° |
| 2026-04-26 12:41 | 42.88630 | 12.36126 | 6636 ft | 228 kts | 115° |
| 2026-04-26 12:41 | 42.88327 | 12.38215 | 6285 ft | 226 kts | 86° |
| 2026-04-26 12:42 | 42.88787 | 12.40273 | 5735 ft | 232 kts | 57° |
| 2026-04-26 12:42 | 42.89826 | 12.41841 | 5286 ft | 212 kts | 40° |
| 2026-04-26 12:42 | 42.90879 | 12.43099 | 4954 ft | 197 kts | 39° |
| 2026-04-26 12:42 | 42.91914 | 12.44315 | 4620 ft | 197 kts | 39° |
| 2026-04-26 12:43 | 42.93035 | 12.45368 | 4284 ft | 195 kts | 25° |
| 2026-04-26 12:43 | 42.94287 | 12.46012 | 3953 ft | 191 kts | 14° |
| 2026-04-26 12:43 | 42.95570 | 12.46470 | 3624 ft | 190 kts | 12° |
| 2026-04-26 12:43 | 42.96848 | 12.46900 | 3342 ft | 190 kts | 12° |
| 2026-04-26 12:44 | 42.98135 | 12.47342 | 3083 ft | 191 kts | 12° |
| 2026-04-26 12:44 | 42.99406 | 12.47784 | 2823 ft | 190 kts | 13° |
| 2026-04-26 12:44 | 43.00644 | 12.48225 | 2583 ft | 178 kts | 13° |
| 2026-04-26 12:44 | 43.01822 | 12.48652 | 2316 ft | 172 kts | 14° |
| 2026-04-26 12:45 | 43.02948 | 12.49064 | 2056 ft | 162 kts | 11° |
| 2026-04-26 12:45 | 43.04013 | 12.49382 | 1784 ft | 150 kts | 11° |
| 2026-04-26 12:45 | 43.05032 | 12.49725 | 1579 ft | 153 kts | 13° |
| 2026-04-26 12:45 | 43.06074 | 12.50093 | 1379 ft | 158 kts | 14° |
| 2026-04-26 12:46 | 43.07163 | 12.50491 | 1123 ft | 161 kts | 12° |
| 2026-04-26 12:46 | 43.08214 | 12.50852 | 831 ft | 150 kts | 11° |
| 2026-04-26 12:46 | 43.09189 | 12.51185 | 673 ft | 137 kts | 12° |
| 2026-04-26 12:46 | 43.09876 | 12.51422 | 671 ft | 69 kts | 14° |
| 2026-04-26 12:47 | 43.10338 | 12.51583 | 674 ft | 69 kts | 14° |
| 2026-04-26 12:47 | 43.10669 | 12.51699 | 671 ft | 26 kts | 14° |
| 2026-04-26 12:47 | 43.10770 | 12.51629 | 671 ft | 19 kts | 284° |
| 2026-04-26 12:47 | 43.10736 | 12.51489 | 672 ft | 16 kts | 193° |
| 2026-04-26 12:48 | 43.10620 | 12.51450 | 672 ft | 19 kts | 194° |
| 2026-04-26 12:48 | 43.10475 | 12.51400 | 672 ft | 25 kts | 194° |
| 2026-04-26 12:48 | 43.10297 | 12.51337 | 672 ft | 28 kts | 194° |
| 2026-04-26 12:48 | 43.10129 | 12.51279 | 672 ft | 24 kts | 194° |
| 2026-04-26 12:49 | 43.10036 | 12.51246 | 672 ft | 0 kts | 194° |
| 2026-04-26 12:49 | 43.10020 | 12.51240 | 672 ft | 7 kts | 194° |
| 2026-04-26 12:49 | 43.09954 | 12.51216 | 672 ft | 12 kts | 194° |
| 2026-04-26 12:49 | 43.09865 | 12.51186 | 672 ft | 15 kts | 193° |
| 2026-04-26 12:50 | 43.09766 | 12.51139 | 670 ft | 14 kts | 232° |
| 2026-04-26 12:50 | 43.09722 | 12.51009 | 672 ft | 16 kts | 246° |
| 2026-04-26 12:50 | 43.09674 | 12.50865 | 672 ft | 12 kts | 246° |
| 2026-04-26 12:50 | 43.09647 | 12.50783 | 668 ft | 10 kts | 246° |
| 2026-04-26 12:51 | 43.09613 | 12.50677 | 672 ft | 15 kts | 246° |
| 2026-04-26 12:51 | 43.09565 | 12.50536 | 672 ft | 10 kts | 246° |
| 2026-04-26 12:51 | 43.09533 | 12.50450 | 671 ft | 8 kts | 242° |
| 2026-04-26 12:51 | 43.09524 | 12.50422 | 672 ft | 6 kts | 248° |
| 2026-04-26 12:52 | 43.09514 | 12.50384 | 671 ft | 0 kts | 249° |